createdAt,value
2018-04-14T00:01:21.507Z,100635.53
2018-04-14T00:03:49.046Z,100635.72
2018-04-14T00:06:16.881Z,100627.91
2018-04-14T00:08:44.746Z,100631.41
2018-04-14T00:11:12.272Z,100633.36
2018-04-14T00:13:40.074Z,100629.31
2018-04-14T00:16:07.614Z,100634.16
2018-04-14T00:18:35.141Z,100630.20
2018-04-14T00:21:02.758Z,100643.80
2018-04-14T00:23:30.521Z,100642.27
2018-04-14T00:25:58.904Z,100643.13
2018-04-14T00:28:26.776Z,100641.91
2018-04-14T00:30:54.285Z,100637.80
2018-04-14T00:33:21.807Z,100637.55
2018-04-14T00:35:49.336Z,100633.59
2018-04-14T00:38:16.851Z,100637.95
2018-04-14T00:40:44.669Z,100632.31
2018-04-14T00:43:12.252Z,100635.72
2018-04-14T00:45:39.765Z,100631.80
2018-04-14T00:48:07.686Z,100633.97
2018-04-14T00:50:35.276Z,100636.33
2018-04-14T00:53:15.106Z,100640.25
2018-04-14T00:55:42.655Z,100634.89
2018-04-14T00:58:10.176Z,100636.59
2018-04-14T01:00:37.718Z,100639.55
2018-04-14T01:03:05.343Z,100648.22
2018-04-14T01:05:32.859Z,100650.20
2018-04-14T01:08:00.378Z,100648.41
2018-04-14T01:10:27.938Z,100646.56
2018-04-14T01:12:55.463Z,100650.55
2018-04-14T01:15:22.983Z,100653.64
2018-04-14T01:17:50.514Z,100658.36
2018-04-14T01:20:18.042Z,100659.79
2018-04-14T01:22:45.726Z,100660.47
2018-04-14T01:25:13.266Z,100663.30
2018-04-14T01:27:40.768Z,100656.05
2018-04-14T01:30:08.631Z,100659.23
2018-04-14T01:32:36.189Z,100657.30
2018-04-14T01:35:03.708Z,100661.14
2018-04-14T01:37:31.205Z,100660.39
2018-04-14T01:39:59.423Z,100656.52
2018-04-14T01:42:27.208Z,100659.14
2018-04-14T01:44:54.728Z,100662.33
2018-04-14T01:47:22.257Z,100663.03
2018-04-14T01:49:50.094Z,100662.02
2018-04-14T01:52:17.606Z,100666.86
2018-04-14T01:54:45.139Z,100665.01
2018-04-14T01:57:12.646Z,100662.66
2018-04-14T01:59:40.162Z,100662.89
2018-04-14T02:02:07.693Z,100670.73
2018-04-14T02:04:35.192Z,100669.45
2018-04-14T02:07:41.052Z,100672.63
2018-04-14T02:10:08.881Z,100675.81
2018-04-14T02:12:36.658Z,100676.05
2018-04-14T02:15:04.521Z,100674.98
2018-04-14T02:17:32.040Z,100665.52
2018-04-14T02:19:59.537Z,100671.75
2018-04-14T02:22:27.073Z,100675.41
2018-04-14T02:24:54.635Z,100678.72
2018-04-14T02:27:22.433Z,100677.48
2018-04-14T02:29:49.978Z,100680.53
2018-04-14T02:32:17.521Z,100677.30
2018-04-14T02:34:45.049Z,100677.11
2018-04-14T02:37:12.604Z,100679.00
2018-04-14T02:39:40.143Z,100684.05
2018-04-14T02:42:07.693Z,100689.03
2018-04-14T02:44:35.801Z,100687.58
2018-04-14T02:47:03.359Z,100690.59
2018-04-14T02:49:30.888Z,100677.75
2018-04-14T02:51:58.754Z,100688.89
2018-04-14T02:54:26.288Z,100689.95
2018-04-14T02:56:53.865Z,100696.41
2018-04-14T02:59:21.471Z,100696.69
2018-04-14T03:01:49.033Z,100702.83
2018-04-14T03:04:16.548Z,100708.59
2018-04-14T03:06:44.094Z,100716.23
2018-04-14T03:09:11.614Z,100711.99
2018-04-14T03:11:39.127Z,100714.82
2018-04-14T03:14:06.677Z,100713.98
2018-04-14T03:16:34.302Z,100717.12
2018-04-14T03:19:01.808Z,100719.13
2018-04-14T03:21:29.339Z,100724.20
2018-04-14T03:23:56.862Z,100728.63
2018-04-14T03:26:24.367Z,100725.67
2018-04-14T03:28:51.909Z,100730.42
2018-04-14T03:31:19.482Z,100733.10
2018-04-14T03:33:46.945Z,100738.11
2018-04-14T03:36:14.472Z,100728.89
2018-04-14T03:38:41.993Z,100740.62
2018-04-14T03:41:09.520Z,100748.33
2018-04-14T03:43:37.066Z,100749.92
2018-04-14T03:46:04.875Z,100752.00
2018-04-14T03:48:32.649Z,100751.63
2018-04-14T03:51:00.184Z,100763.06
2018-04-14T03:53:27.712Z,100760.59
2018-04-14T03:55:55.226Z,100769.28
2018-04-14T03:58:22.759Z,100768.61
2018-04-14T04:00:50.295Z,100781.30
2018-04-14T04:03:17.800Z,100789.59
2018-04-14T04:05:45.336Z,100781.84
2018-04-14T04:08:12.853Z,100789.51
2018-04-14T04:10:40.688Z,100796.02
2018-04-14T04:13:08.337Z,100806.00
2018-04-14T04:15:36.780Z,100805.88
2018-04-14T04:18:04.296Z,100803.95
2018-04-14T04:20:56.743Z,100811.08
2018-04-14T04:23:36.478Z,100820.84
2018-04-14T04:26:04.046Z,100827.13
2018-04-14T04:28:31.915Z,100844.45
2018-04-14T04:30:59.448Z,100838.60
2018-04-14T04:33:26.991Z,100844.36
2018-04-14T04:35:54.493Z,100852.78
2018-04-14T04:38:22.007Z,100857.20
2018-04-14T04:40:49.606Z,100858.39
2018-04-14T04:43:17.118Z,100870.17
2018-04-14T04:45:44.646Z,100870.60
2018-04-14T04:48:12.193Z,100880.32
2018-04-14T04:50:39.707Z,100884.28
2018-04-14T04:53:07.244Z,100885.05
2018-04-14T04:55:35.083Z,100891.45
2018-04-14T04:58:02.588Z,100899.91
2018-04-14T05:00:30.146Z,100901.93
2018-04-14T05:02:57.651Z,100911.91
2018-04-14T05:05:25.187Z,100912.19
2018-04-14T05:07:52.701Z,100920.20
2018-04-14T05:10:20.544Z,100930.34
2018-04-14T05:12:48.058Z,100933.06
2018-04-14T05:15:15.586Z,100939.11
2018-04-14T05:17:43.116Z,100947.94
2018-04-14T05:20:10.637Z,100943.19
2018-04-14T05:22:38.225Z,100952.77
2018-04-14T05:25:05.739Z,100951.52
2018-04-14T05:27:33.399Z,100965.08
2018-04-14T05:30:00.946Z,100969.36
2018-04-14T05:32:28.608Z,100979.23
2018-04-14T05:34:56.573Z,100973.13
2018-04-14T05:37:24.343Z,100984.33
2018-04-14T05:39:51.898Z,100989.25
2018-04-14T05:42:19.670Z,100996.57
2018-04-14T05:44:47.528Z,100996.79
2018-04-14T05:47:15.068Z,101000.30
2018-04-14T05:49:42.957Z,101014.50
2018-04-14T05:52:10.499Z,101012.16
2018-04-14T05:54:38.020Z,101015.75
2018-04-14T05:57:05.564Z,101014.95
2018-04-14T05:59:33.119Z,101022.88
2018-04-14T06:02:00.638Z,101024.97
2018-04-14T06:04:28.218Z,101029.52
2018-04-14T06:06:55.710Z,101036.75
2018-04-14T06:09:23.268Z,101037.63
2018-04-14T06:11:50.787Z,101038.58
2018-04-14T06:14:18.307Z,101044.34
2018-04-14T06:16:45.928Z,101057.72
2018-04-14T06:19:13.427Z,101053.05
2018-04-14T06:21:40.969Z,101061.72
2018-04-14T06:24:09.316Z,101060.05
2018-04-14T06:26:36.993Z,101066.89
2018-04-14T06:29:04.535Z,101073.83
2018-04-14T06:31:32.019Z,101077.67
2018-04-14T06:33:59.870Z,101086.66
2018-04-14T06:36:27.416Z,101086.58
2018-04-14T06:38:54.937Z,101088.63
2018-04-14T06:41:22.755Z,101091.17
2018-04-14T06:43:50.267Z,101100.84
2018-04-14T06:46:17.833Z,101105.52
2018-04-14T06:48:45.372Z,101103.50
2018-04-14T06:51:12.892Z,101108.23
2018-04-14T06:53:40.532Z,101121.60
2018-04-14T06:56:08.205Z,101118.84
2018-04-14T06:58:35.895Z,101120.41
2018-04-14T07:01:03.433Z,101128.09
2018-04-14T07:03:31.208Z,101130.39
2018-04-14T07:05:58.750Z,101135.51
2018-04-14T07:08:26.278Z,101139.48
2018-04-14T07:10:53.846Z,101143.25
2018-04-14T07:13:21.468Z,101153.80
2018-04-14T07:15:48.988Z,101147.48
2018-04-14T07:18:16.589Z,101160.05
2018-04-14T07:20:44.334Z,101150.38
2018-04-14T07:23:11.929Z,101159.46
2018-04-14T07:25:39.488Z,101165.73
2018-04-14T07:28:07.034Z,101168.39
2018-04-14T07:30:34.582Z,101159.14
2018-04-14T07:33:02.451Z,101161.91
2018-04-14T07:35:30.217Z,101169.47
2018-04-14T07:37:58.150Z,101180.59
2018-04-14T07:40:25.764Z,101190.49
2018-04-14T07:42:53.443Z,101182.81
2018-04-14T07:45:20.996Z,101189.47
2018-04-14T07:47:49.456Z,101189.33
2018-04-14T07:50:18.137Z,101199.50
2018-04-14T07:52:45.774Z,101201.95
2018-04-14T07:55:13.362Z,101198.33
2018-04-14T07:57:40.914Z,101199.81
2018-04-14T08:00:08.460Z,101209.38
2018-04-14T08:02:36.023Z,101209.30
2018-04-14T08:05:03.569Z,101211.00
2018-04-14T08:07:31.130Z,101217.61
2018-04-14T08:09:58.778Z,101227.82
2018-04-14T08:12:26.338Z,101233.03
2018-04-14T08:14:53.904Z,101229.82
2018-04-14T08:17:21.426Z,101238.13
2018-04-14T08:19:48.987Z,101239.05
2018-04-14T08:22:16.518Z,101238.70
2018-04-14T08:24:44.064Z,101233.61
2018-04-14T08:27:11.699Z,101232.67
2018-04-14T08:29:39.243Z,101237.88
2018-04-14T08:32:06.855Z,101237.76
2018-04-14T08:34:34.905Z,101231.36
2018-04-14T08:37:02.513Z,101235.45
2018-04-14T08:39:30.045Z,101237.09
2018-04-14T08:41:57.638Z,101243.55
2018-04-14T08:44:25.243Z,101240.70
2018-04-14T08:46:52.818Z,101246.13
2018-04-14T08:49:20.356Z,101244.27
2018-04-14T08:51:47.879Z,101246.05
2018-04-14T08:54:15.446Z,101250.29
2018-04-14T08:56:42.974Z,101244.40
2018-04-14T08:59:10.516Z,101250.69
2018-04-14T09:01:38.212Z,101254.39
2018-04-14T09:04:06.309Z,101258.19
2018-04-14T09:06:33.907Z,101267.73
2018-04-14T09:09:01.552Z,101269.81
2018-04-14T09:11:29.107Z,101271.05
2018-04-14T09:13:56.640Z,101282.05
2018-04-14T09:16:24.151Z,101275.52
2018-04-14T09:18:52.078Z,101274.48
2018-04-14T09:21:19.623Z,101262.35
2018-04-14T09:23:47.496Z,101265.14
2018-04-14T09:26:15.011Z,101268.35
2018-04-14T09:28:42.536Z,101266.92
2018-04-14T09:31:10.067Z,101268.68
2018-04-14T09:33:37.583Z,101277.52
2018-04-14T09:36:05.201Z,101273.60
2018-04-14T09:38:32.744Z,101289.05
2018-04-14T09:41:00.317Z,101283.23
2018-04-14T09:43:28.004Z,101285.99
2018-04-14T09:45:55.847Z,101288.06
2018-04-14T09:48:23.383Z,101289.56
2018-04-14T09:50:50.960Z,101296.35
2018-04-14T09:53:18.478Z,101310.04
2018-04-14T09:55:46.028Z,101303.23
2018-04-14T09:58:14.176Z,101304.85
2018-04-14T10:00:47.588Z,101304.25
2018-04-14T10:03:20.922Z,101304.66
2018-04-14T10:05:50.450Z,101309.92
2018-04-14T10:08:18.245Z,101312.46
2018-04-14T10:10:45.803Z,101307.95
2018-04-14T10:13:13.330Z,101312.64
2018-04-14T10:15:40.847Z,101302.70
2018-04-14T10:18:08.594Z,101307.08
2018-04-14T10:20:36.120Z,101313.33
2018-04-14T10:23:03.665Z,101306.50
2018-04-14T10:25:31.198Z,101316.38
2018-04-14T10:27:58.724Z,101303.63
2018-04-14T10:30:26.273Z,101313.30
2018-04-14T10:32:53.838Z,101315.17
2018-04-14T10:35:21.440Z,101304.89
2018-04-14T10:37:49.071Z,101307.91
2018-04-14T10:40:16.565Z,101317.34
2018-04-14T10:42:44.131Z,101316.78
2018-04-14T10:45:11.662Z,101318.44
2018-04-14T10:47:39.239Z,101315.84
2018-04-14T10:50:06.797Z,101312.45
2018-04-14T10:52:34.348Z,101326.76
2018-04-14T10:55:01.925Z,101320.77
2018-04-14T10:57:29.518Z,101320.42
2018-04-14T10:59:57.122Z,101318.80
2018-04-14T11:02:25.179Z,101321.27
2018-04-14T11:04:52.775Z,101315.17
2018-04-14T11:07:20.276Z,101311.63
2018-04-14T11:09:47.843Z,101305.02
2018-04-14T11:12:15.405Z,101304.29
2018-04-14T11:14:42.945Z,101308.66
2018-04-14T11:17:10.526Z,101304.80
2018-04-14T11:19:38.090Z,101305.50
2018-04-14T11:22:05.709Z,101298.53
2018-04-14T11:24:33.308Z,101307.14
2018-04-14T11:27:00.976Z,101307.27
2018-04-14T11:29:28.501Z,101310.09
2018-04-14T11:31:56.037Z,101311.83
2018-04-14T11:34:23.576Z,101308.72
2018-04-14T11:36:51.150Z,101312.56
2018-04-14T11:39:18.694Z,101308.09
2018-04-14T11:41:46.489Z,101312.64
2018-04-14T11:44:14.324Z,101312.73
2018-04-14T11:46:41.847Z,101316.66
2018-04-14T11:49:09.463Z,101318.45
2018-04-14T11:51:37.012Z,101323.44
2018-04-14T11:54:04.542Z,101324.16
2018-04-14T11:56:32.124Z,101326.00
2018-04-14T11:58:59.657Z,101314.56
2018-04-14T12:01:27.227Z,101319.52
2018-04-14T12:03:55.015Z,101330.78
2018-04-14T12:06:22.618Z,101335.89
2018-04-14T12:08:50.270Z,101345.37
2018-04-14T12:11:17.831Z,101354.95
2018-04-14T12:13:45.411Z,101362.41
2018-04-14T12:16:12.942Z,101354.13
2018-04-14T12:18:40.488Z,101355.89
2018-04-14T12:21:08.194Z,101370.05
2018-04-14T12:23:35.744Z,101367.16
2018-04-14T12:26:03.306Z,101369.06
2018-04-14T12:28:31.103Z,101378.23
2018-04-14T12:30:58.689Z,101380.89
2018-04-14T12:33:26.210Z,101379.36
2018-04-14T12:35:53.777Z,101376.42
2018-04-14T12:38:21.314Z,101378.78
2018-04-14T12:40:48.917Z,101376.64
2018-04-14T12:43:16.457Z,101362.03
2018-04-14T12:45:43.966Z,101372.66
2018-04-14T12:48:11.510Z,101374.22
2018-04-14T12:50:39.132Z,101380.59
2018-04-14T12:53:06.816Z,101391.28
2018-04-14T12:55:35.537Z,101409.61
2018-04-14T12:58:03.075Z,101394.79
2018-04-14T13:00:31.981Z,101393.90
2018-04-14T13:02:59.596Z,101394.57
2018-04-14T13:05:27.175Z,101392.33
2018-04-14T13:07:54.971Z,101393.77
2018-04-14T13:10:22.621Z,101388.71
2018-04-14T13:12:50.160Z,101398.33
2018-04-14T13:15:17.677Z,101396.26
2018-04-14T13:17:45.297Z,101384.27
2018-04-14T13:20:12.927Z,101380.30
2018-04-14T13:22:40.558Z,101370.81
2018-04-14T13:25:08.129Z,101375.32
2018-04-14T13:27:35.739Z,101380.11
2018-04-14T13:30:03.283Z,101373.20
2018-04-14T13:32:31.134Z,101370.51
2018-04-14T13:34:59.073Z,101363.77
2018-04-14T13:37:26.595Z,101368.33
2018-04-14T13:39:54.145Z,101372.17
2018-04-14T13:42:21.950Z,101356.91
2018-04-14T13:44:49.515Z,101366.09
2018-04-14T13:47:17.116Z,101368.45
2018-04-14T13:49:44.624Z,101359.36
2018-04-14T13:52:12.397Z,101357.23
2018-04-14T13:54:39.924Z,101367.44
2018-04-14T13:57:07.487Z,101372.59
2018-04-14T13:59:35.284Z,101367.79
2018-04-14T14:02:02.982Z,101368.89
2018-04-14T14:04:30.485Z,101365.72
2018-04-14T14:06:58.024Z,101364.69
2018-04-14T14:09:25.580Z,101368.62
2018-04-14T14:11:53.163Z,101363.67
2018-04-14T14:14:20.826Z,101364.34
2018-04-14T14:16:48.617Z,101356.95
2018-04-14T14:19:16.401Z,101361.77
2018-04-14T14:21:43.980Z,101351.74
2018-04-14T14:24:11.499Z,101348.04
2018-04-14T14:26:39.040Z,101356.85
2018-04-14T14:29:06.563Z,101346.38
2018-04-14T14:31:34.167Z,101356.63
2018-04-14T14:34:01.689Z,101349.55
2018-04-14T14:36:29.514Z,101357.70
2018-04-14T14:38:57.008Z,101362.41
2018-04-14T14:41:24.543Z,101360.06
2018-04-14T14:43:52.095Z,101357.77
2018-04-14T14:46:19.631Z,101367.06
2018-04-14T14:48:47.425Z,101367.00
2018-04-14T14:51:14.944Z,101370.18
2018-04-14T14:53:42.492Z,101377.20
2018-04-14T14:56:10.088Z,101368.47
2018-04-14T14:58:37.643Z,101368.35
2018-04-14T15:01:05.211Z,101370.78
2018-04-14T15:03:32.745Z,101368.30
2018-04-14T15:06:00.302Z,101366.38
2018-04-14T15:08:27.816Z,101361.09
2018-04-14T15:10:55.425Z,101363.09
2018-04-14T15:13:23.447Z,101366.25
2018-04-14T15:15:50.996Z,101367.62
2018-04-14T15:18:18.687Z,101365.87
2018-04-14T15:20:46.224Z,101362.47
2018-04-14T15:23:13.738Z,101366.04
2018-04-14T15:25:41.246Z,101365.35
2018-04-14T15:28:08.823Z,101366.78
2018-04-14T15:30:36.341Z,101368.20
2018-04-14T15:33:03.876Z,101368.63
2018-04-14T15:35:31.394Z,101370.47
2018-04-14T15:37:58.955Z,101369.34
2018-04-14T15:40:26.571Z,101380.03
2018-04-14T15:42:54.072Z,101376.36
2018-04-14T15:45:21.593Z,101376.75
2018-04-14T15:47:49.429Z,101379.09
2018-04-14T15:50:17.043Z,101394.11
2018-04-14T15:52:44.593Z,101393.25
2018-04-14T15:55:12.289Z,101395.81
2018-04-14T15:57:39.956Z,101399.35
2018-04-14T16:00:07.531Z,101400.00
2018-04-14T16:02:35.081Z,101399.43
2018-04-14T16:05:02.634Z,101396.72
2018-04-14T16:07:30.323Z,101400.62
2018-04-14T16:09:57.840Z,101397.25
2018-04-14T16:12:25.540Z,101398.00
2018-04-14T16:14:53.476Z,101397.14
2018-04-14T16:17:21.024Z,101402.98
2018-04-14T16:19:48.611Z,101403.52
2018-04-14T16:22:16.162Z,101407.28
2018-04-14T16:24:43.698Z,101401.77
2018-04-14T16:27:11.225Z,101409.88
2018-04-14T16:29:38.819Z,101408.34
2018-04-14T16:32:06.379Z,101411.77
2018-04-14T16:34:34.621Z,101417.70
2018-04-14T16:37:02.357Z,101411.23
2018-04-14T16:39:29.896Z,101417.38
2018-04-14T16:41:57.481Z,101419.97
2018-04-14T16:44:25.020Z,101415.73
2018-04-14T16:46:52.586Z,101423.21
2018-04-14T16:49:20.201Z,101419.06
2018-04-14T16:51:47.746Z,101412.33
2018-04-14T16:54:15.276Z,101412.41
2018-04-14T16:56:42.826Z,101413.30
2018-04-14T16:59:14.197Z,101413.53
2018-04-14T17:01:41.715Z,101414.25
2018-04-14T17:04:09.302Z,101414.23
2018-04-14T17:06:37.170Z,101414.45
2018-04-14T17:09:05.320Z,101411.55
2018-04-14T17:11:32.887Z,101411.75
2018-04-14T17:14:00.446Z,101410.28
2018-04-14T17:16:27.982Z,101416.22
2018-04-14T17:18:55.804Z,101412.56
2018-04-14T17:21:23.670Z,101414.55
2018-04-14T17:23:51.284Z,101414.23
2018-04-14T17:26:18.821Z,101406.77
2018-04-14T17:28:46.377Z,101407.05
2018-04-14T17:31:14.294Z,101407.16
2018-04-14T17:33:41.890Z,101414.00
2018-04-14T17:36:09.734Z,101417.19
2018-04-14T17:38:37.371Z,101422.98
2018-04-14T17:41:05.181Z,101416.45
2018-04-14T17:43:33.044Z,101420.18
2018-04-14T17:46:00.681Z,101421.70
2018-04-14T17:48:28.270Z,101425.33
2018-04-14T17:50:55.824Z,101419.70
2018-04-14T17:53:23.346Z,101423.42
2018-04-14T17:55:51.118Z,101423.02
2018-04-14T17:58:18.663Z,101421.73
2018-04-14T18:00:46.218Z,101426.27
2018-04-14T18:03:14.176Z,101434.00
2018-04-14T18:05:41.723Z,101430.06
2018-04-14T18:08:09.567Z,101428.68
2018-04-14T18:10:37.067Z,101425.34
2018-04-14T18:13:04.647Z,101425.67
2018-04-14T18:15:32.259Z,101424.70
2018-04-14T18:17:59.769Z,101422.95
2018-04-14T18:20:27.364Z,101430.58
2018-04-14T18:22:55.128Z,101433.05
2018-04-14T18:25:22.727Z,101438.66
2018-04-14T18:27:50.255Z,101447.15
2018-04-14T18:30:17.781Z,101445.48
2018-04-14T18:32:45.425Z,101451.06
2018-04-14T18:35:12.923Z,101451.77
2018-04-14T18:37:40.626Z,101451.28
2018-04-14T18:40:08.142Z,101459.14
2018-04-14T18:42:35.709Z,101462.54
2018-04-14T18:45:03.263Z,101461.80
2018-04-14T18:47:30.764Z,101471.13
2018-04-14T18:49:58.606Z,101472.28
2018-04-14T18:52:26.137Z,101473.50
2018-04-14T18:54:53.650Z,101478.47
2018-04-14T18:57:21.241Z,101479.95
2018-04-14T18:59:48.769Z,101484.32
2018-04-14T19:02:16.293Z,101484.47
2018-04-14T19:04:43.856Z,101494.91
2018-04-14T19:07:11.502Z,101492.41
2018-04-14T19:09:39.079Z,101498.30
2018-04-14T19:12:06.636Z,101500.98
2018-04-14T19:14:34.231Z,101498.39
2018-04-14T19:17:01.826Z,101499.79
2018-04-14T19:19:29.447Z,101495.97
2018-04-14T19:21:56.968Z,101496.91
2018-04-14T19:24:24.551Z,101498.39
2018-04-14T19:26:52.142Z,101499.97
2018-04-14T19:29:19.659Z,101492.62
2018-04-14T19:31:47.182Z,101493.23
2018-04-14T19:34:14.826Z,101489.78
2018-04-14T19:36:42.337Z,101486.45
2018-04-14T19:39:09.857Z,101486.55
2018-04-14T19:41:37.528Z,101483.44
2018-04-14T19:44:05.122Z,101490.67
2018-04-14T19:46:32.648Z,101481.16
2018-04-14T19:49:00.178Z,101484.55
2018-04-14T19:51:27.781Z,101474.90
2018-04-14T19:53:55.598Z,101477.30
2018-04-14T19:56:23.593Z,101483.70
2018-04-14T19:58:51.139Z,101486.16
2018-04-14T20:01:18.787Z,101493.67
2018-04-14T20:03:46.330Z,101492.00
2018-04-14T20:06:13.860Z,101494.91
2018-04-14T20:08:41.451Z,101493.07
2018-04-14T20:11:09.254Z,101491.50
2018-04-14T20:13:36.798Z,101486.20
2018-04-14T20:16:04.335Z,101482.16
2018-04-14T20:18:31.915Z,101483.27
2018-04-14T20:20:59.440Z,101482.53
2018-04-14T20:23:26.983Z,101477.87
2018-04-14T20:25:54.807Z,101476.72
2018-04-14T20:28:22.457Z,101478.77
2018-04-14T20:30:50.238Z,101477.18
2018-04-14T20:33:17.756Z,101473.87
2018-04-14T20:35:45.449Z,101474.30
2018-04-14T20:38:13.338Z,101478.19
2018-04-14T20:40:40.867Z,101473.92
2018-04-14T20:43:08.386Z,101476.38
2018-04-14T20:45:36.052Z,101480.63
2018-04-14T20:48:03.579Z,101482.34
2018-04-14T20:50:31.221Z,101475.94
2018-04-14T20:52:59.604Z,101482.84
2018-04-14T20:55:27.255Z,101483.54
2018-04-14T20:57:54.794Z,101480.23
2018-04-14T21:00:22.822Z,101480.33
2018-04-14T21:02:50.602Z,101484.63
2018-04-14T21:05:18.284Z,101491.42
2018-04-14T21:07:45.986Z,101487.59
2018-04-14T21:10:13.540Z,101472.28
2018-04-14T21:12:41.173Z,101480.95
2018-04-14T21:15:08.700Z,101481.22
2018-04-14T21:17:36.263Z,101478.20
2018-04-14T21:20:03.830Z,101483.65
2018-04-14T21:22:31.364Z,101483.56
2018-04-14T21:24:58.927Z,101475.50
2018-04-14T21:27:26.563Z,101475.68
2018-04-14T21:29:54.092Z,101463.03
2018-04-14T21:32:21.624Z,101471.50
2018-04-14T21:34:49.255Z,101467.15
2018-04-14T21:37:16.792Z,101473.77
2018-04-14T21:39:44.489Z,101470.88
2018-04-14T21:42:12.197Z,101471.81
2018-04-14T21:44:39.794Z,101469.63
2018-04-14T21:47:07.868Z,101475.46
2018-04-14T21:49:35.466Z,101478.15
2018-04-14T21:52:03.008Z,101473.19
2018-04-14T21:54:30.634Z,101474.86
2018-04-14T21:56:58.272Z,101468.09
2018-04-14T21:59:26.098Z,101475.23
2018-04-14T22:01:53.634Z,101467.33
2018-04-14T22:04:21.145Z,101473.61
2018-04-14T22:06:48.670Z,101477.16
2018-04-14T22:09:16.232Z,101476.00
2018-04-14T22:11:44.756Z,101471.86
2018-04-14T22:14:24.190Z,101480.75
2018-04-14T22:16:51.797Z,101480.42
2018-04-14T22:19:19.316Z,101490.00
2018-04-14T22:21:46.866Z,101490.27
2018-04-14T22:24:14.426Z,101481.05
2018-04-14T22:26:42.089Z,101482.05
2018-04-14T22:29:09.588Z,101477.45
2018-04-14T22:31:37.115Z,101464.08
2018-04-14T22:34:04.666Z,101467.28
2018-04-14T22:36:32.236Z,101480.38
2018-04-14T22:38:59.785Z,101487.78
2018-04-14T22:41:27.353Z,101484.56
2018-04-14T22:43:55.215Z,101480.20
2018-04-14T22:46:22.752Z,101478.95
2018-04-14T22:48:50.338Z,101481.58
2018-04-14T22:51:17.925Z,101475.58
2018-04-14T22:53:45.450Z,101466.95
2018-04-14T22:56:13.116Z,101458.75
2018-04-14T22:58:40.703Z,101460.16
2018-04-14T23:01:08.238Z,101456.84
2018-04-14T23:03:35.785Z,101462.98
2018-04-14T23:06:03.553Z,101455.95
2018-04-14T23:08:31.079Z,101461.41
2018-04-14T23:10:58.700Z,101457.17
2018-04-14T23:13:26.273Z,101451.56
2018-04-14T23:15:53.868Z,101455.67
2018-04-14T23:18:21.386Z,101458.69
2018-04-14T23:20:48.896Z,101462.33
2018-04-14T23:23:16.474Z,101463.05
2018-04-14T23:25:43.999Z,101460.36
2018-04-14T23:28:11.729Z,101453.91
2018-04-14T23:30:39.261Z,101444.58
2018-04-14T23:33:06.791Z,101447.69
2018-04-14T23:35:34.443Z,101439.90
2018-04-14T23:38:01.965Z,101436.62
2018-04-14T23:40:29.499Z,101439.90
2018-04-14T23:42:57.018Z,101437.98
2018-04-14T23:45:24.547Z,101435.22
2018-04-14T23:47:52.079Z,101431.70
2018-04-14T23:50:19.593Z,101429.48
2018-04-14T23:52:47.133Z,101425.05
2018-04-14T23:55:14.655Z,101426.38
2018-04-14T23:57:42.182Z,101428.23
